sensor_id;sensor_type;location;lat;lon;timestamp;temperature;humidity
5459;DHT22;2752;49.992;8.422;2022-08-19T00:00:04;22.30;1.00
5459;DHT22;2752;49.992;8.422;2022-08-19T00:02:31;22.00;1.00
5459;DHT22;2752;49.992;8.422;2022-08-19T00:04:58;22.10;1.00
5459;DHT22;2752;49.992;8.422;2022-08-19T00:07:25;22.10;1.00
5459;DHT22;2752;49.992;8.422;2022-08-19T00:09:51;22.10;1.00
5459;DHT22;2752;49.992;8.422;2022-08-19T00:12:20;22.20;1.00
5459;DHT22;2752;49.992;8.422;2022-08-19T00:14:47;22.20;1.00
5459;DHT22;2752;49.992;8.422;2022-08-19T00:17:13;22.20;1.00
5459;DHT22;2752;49.992;8.422;2022-08-19T00:19:40;22.10;1.00
5459;DHT22;2752;49.992;8.422;2022-08-19T00:22:06;22.10;1.00
5459;DHT22;2752;49.992;8.422;2022-08-19T00:24:34;22.00;1.00
5459;DHT22;2752;49.992;8.422;2022-08-19T00:27:03;22.00;1.00
5459;DHT22;2752;49.992;8.422;2022-08-19T00:29:31;22.40;1.00
5459;DHT22;2752;49.992;8.422;2022-08-19T00:31:58;22.20;1.00
5459;DHT22;2752;49.992;8.422;2022-08-19T00:34:25;22.20;1.00
5459;DHT22;2752;49.992;8.422;2022-08-19T00:36:54;22.20;1.00
5459;DHT22;2752;49.992;8.422;2022-08-19T00:39:20;22.30;1.00
5459;DHT22;2752;49.992;8.422;2022-08-19T00:41:48;22.20;1.00
5459;DHT22;2752;49.992;8.422;2022-08-19T00:44:20;22.10;1.00
5459;DHT22;2752;49.992;8.422;2022-08-19T00:46:51;22.30;1.00
5459;DHT22;2752;49.992;8.422;2022-08-19T00:49:20;22.20;1.00
5459;DHT22;2752;49.992;8.422;2022-08-19T00:51:51;22.00;1.00
5459;DHT22;2752;49.992;8.422;2022-08-19T00:54:19;22.10;1.00
5459;DHT22;2752;49.992;8.422;2022-08-19T00:56:46;22.20;1.00
5459;DHT22;2752;49.992;8.422;2022-08-19T00:59:15;22.30;1.00
5459;DHT22;2752;49.992;8.422;2022-08-19T01:01:43;22.00;1.00
5459;DHT22;2752;49.992;8.422;2022-08-19T01:04:12;22.10;1.00
5459;DHT22;2752;49.992;8.422;2022-08-19T01:06:40;22.10;1.00
5459;DHT22;2752;49.992;8.422;2022-08-19T01:09:07;22.10;1.00
5459;DHT22;2752;49.992;8.422;2022-08-19T01:11:38;22.10;1.00
5459;DHT22;2752;49.992;8.422;2022-08-19T01:14:06;22.00;1.00
5459;DHT22;2752;49.992;8.422;2022-08-19T01:16:34;21.90;1.00
5459;DHT22;2752;49.992;8.422;2022-08-19T01:19:02;21.90;1.00
5459;DHT22;2752;49.992;8.422;2022-08-19T01:21:34;21.90;1.00
5459;DHT22;2752;49.992;8.422;2022-08-19T01:24:04;21.50;1.00
5459;DHT22;2752;49.992;8.422;2022-08-19T01:26:38;21.80;1.00
5459;DHT22;2752;49.992;8.422;2022-08-19T01:29:07;21.90;1.00
5459;DHT22;2752;49.992;8.422;2022-08-19T01:31:34;21.90;1.00
5459;DHT22;2752;49.992;8.422;2022-08-19T01:34:02;22.00;1.00
5459;DHT22;2752;49.992;8.422;2022-08-19T01:36:32;22.00;1.00
5459;DHT22;2752;49.992;8.422;2022-08-19T01:39:06;21.90;1.00
5459;DHT22;2752;49.992;8.422;2022-08-19T01:41:33;21.80;1.00
5459;DHT22;2752;49.992;8.422;2022-08-19T01:44:00;21.80;1.00
5459;DHT22;2752;49.992;8.422;2022-08-19T01:46:28;21.70;1.00
5459;DHT22;2752;49.992;8.422;2022-08-19T01:48:55;21.80;1.00
5459;DHT22;2752;49.992;8.422;2022-08-19T01:51:22;21.80;1.00
5459;DHT22;2752;49.992;8.422;2022-08-19T01:53:50;21.70;1.00
5459;DHT22;2752;49.992;8.422;2022-08-19T01:56:19;21.70;1.00
5459;DHT22;2752;49.992;8.422;2022-08-19T01:58:50;21.90;1.00
5459;DHT22;2752;49.992;8.422;2022-08-19T02:01:17;21.90;1.00
5459;DHT22;2752;49.992;8.422;2022-08-19T02:03:44;22.10;1.00
5459;DHT22;2752;49.992;8.422;2022-08-19T02:06:11;22.00;1.00
5459;DHT22;2752;49.992;8.422;2022-08-19T02:08:39;22.00;1.00
5459;DHT22;2752;49.992;8.422;2022-08-19T02:11:06;21.90;1.00
5459;DHT22;2752;49.992;8.422;2022-08-19T02:13:34;22.00;1.00
5459;DHT22;2752;49.992;8.422;2022-08-19T02:16:02;22.00;1.00
5459;DHT22;2752;49.992;8.422;2022-08-19T02:18:29;22.10;1.00
5459;DHT22;2752;49.992;8.422;2022-08-19T02:20:55;22.10;1.00
5459;DHT22;2752;49.992;8.422;2022-08-19T02:23:22;22.00;1.00
5459;DHT22;2752;49.992;8.422;2022-08-19T02:25:49;22.00;1.00
5459;DHT22;2752;49.992;8.422;2022-08-19T02:28:15;22.00;1.00
5459;DHT22;2752;49.992;8.422;2022-08-19T02:30:44;22.40;1.00
5459;DHT22;2752;49.992;8.422;2022-08-19T02:33:10;21.80;1.00
5459;DHT22;2752;49.992;8.422;2022-08-19T02:35:41;22.00;1.00
5459;DHT22;2752;49.992;8.422;2022-08-19T02:38:08;21.90;1.00
5459;DHT22;2752;49.992;8.422;2022-08-19T02:40:54;21.90;1.00
5459;DHT22;2752;49.992;8.422;2022-08-19T02:43:22;21.90;1.00
5459;DHT22;2752;49.992;8.422;2022-08-19T02:45:50;21.80;1.00
5459;DHT22;2752;49.992;8.422;2022-08-19T02:48:18;21.70;1.00
5459;DHT22;2752;49.992;8.422;2022-08-19T02:50:46;21.90;1.00
5459;DHT22;2752;49.992;8.422;2022-08-19T02:53:13;21.30;1.00
5459;DHT22;2752;49.992;8.422;2022-08-19T02:55:44;21.80;1.00
5459;DHT22;2752;49.992;8.422;2022-08-19T02:58:11;21.90;1.00
5459;DHT22;2752;49.992;8.422;2022-08-19T03:00:42;21.80;1.00
5459;DHT22;2752;49.992;8.422;2022-08-19T03:03:10;21.80;1.00
5459;DHT22;2752;49.992;8.422;2022-08-19T03:05:36;21.70;1.00
5459;DHT22;2752;49.992;8.422;2022-08-19T03:08:03;21.60;1.00
5459;DHT22;2752;49.992;8.422;2022-08-19T03:10:31;22.00;1.00
5459;DHT22;2752;49.992;8.422;2022-08-19T03:12:57;21.80;1.00
5459;DHT22;2752;49.992;8.422;2022-08-19T03:15:24;21.80;1.00
5459;DHT22;2752;49.992;8.422;2022-08-19T03:17:51;21.70;1.00
5459;DHT22;2752;49.992;8.422;2022-08-19T03:20:19;21.60;1.00
5459;DHT22;2752;49.992;8.422;2022-08-19T03:22:46;21.60;1.00
5459;DHT22;2752;49.992;8.422;2022-08-19T03:25:12;21.50;1.00
5459;DHT22;2752;49.992;8.422;2022-08-19T03:27:39;21.70;1.00
5459;DHT22;2752;49.992;8.422;2022-08-19T03:30:07;21.50;1.00
5459;DHT22;2752;49.992;8.422;2022-08-19T03:32:34;21.50;1.00
5459;DHT22;2752;49.992;8.422;2022-08-19T03:35:00;21.40;1.00
5459;DHT22;2752;49.992;8.422;2022-08-19T03:37:29;21.30;1.00
5459;DHT22;2752;49.992;8.422;2022-08-19T03:39:55;21.40;1.00
5459;DHT22;2752;49.992;8.422;2022-08-19T03:42:22;21.20;1.00
5459;DHT22;2752;49.992;8.422;2022-08-19T03:44:48;21.20;1.00
5459;DHT22;2752;49.992;8.422;2022-08-19T03:49:43;21.10;1.00
5459;DHT22;2752;49.992;8.422;2022-08-19T03:52:10;21.10;1.00
5459;DHT22;2752;49.992;8.422;2022-08-19T03:54:38;21.00;1.00
5459;DHT22;2752;49.992;8.422;2022-08-19T03:57:05;21.00;1.00
5459;DHT22;2752;49.992;8.422;2022-08-19T03:59:34;21.20;1.00
5459;DHT22;2752;49.992;8.422;2022-08-19T04:02:06;21.10;1.00
5459;DHT22;2752;49.992;8.422;2022-08-19T04:04:34;21.00;1.00
5459;DHT22;2752;49.992;8.422;2022-08-19T04:07:01;21.10;1.00
5459;DHT22;2752;49.992;8.422;2022-08-19T04:09:27;21.00;1.00
5459;DHT22;2752;49.992;8.422;2022-08-19T04:11:56;20.90;1.00
5459;DHT22;2752;49.992;8.422;2022-08-19T04:14:25;20.80;1.00
5459;DHT22;2752;49.992;8.422;2022-08-19T04:16:53;21.00;1.00
5459;DHT22;2752;49.992;8.422;2022-08-19T04:19:20;20.80;1.00
5459;DHT22;2752;49.992;8.422;2022-08-19T04:21:49;20.70;1.00
5459;DHT22;2752;49.992;8.422;2022-08-19T04:24:18;20.90;1.00
5459;DHT22;2752;49.992;8.422;2022-08-19T04:26:45;20.80;1.00
5459;DHT22;2752;49.992;8.422;2022-08-19T04:29:16;20.80;1.00
5459;DHT22;2752;49.992;8.422;2022-08-19T04:31:45;20.90;1.00
5459;DHT22;2752;49.992;8.422;2022-08-19T04:34:13;20.80;1.00
5459;DHT22;2752;49.992;8.422;2022-08-19T04:36:42;20.60;1.00
5459;DHT22;2752;49.992;8.422;2022-08-19T04:39:11;20.60;1.00
5459;DHT22;2752;49.992;8.422;2022-08-19T04:41:38;20.70;1.00
5459;DHT22;2752;49.992;8.422;2022-08-19T04:44:24;20.50;1.00
5459;DHT22;2752;49.992;8.422;2022-08-19T04:46:51;20.80;1.00
5459;DHT22;2752;49.992;8.422;2022-08-19T04:49:20;21.10;1.00
5459;DHT22;2752;49.992;8.422;2022-08-19T04:51:47;20.70;1.00
5459;DHT22;2752;49.992;8.422;2022-08-19T04:54:14;21.10;1.00
5459;DHT22;2752;49.992;8.422;2022-08-19T04:56:41;20.60;1.00
5459;DHT22;2752;49.992;8.422;2022-08-19T04:59:09;20.60;1.00
5459;DHT22;2752;49.992;8.422;2022-08-19T05:01:37;20.60;1.00
5459;DHT22;2752;49.992;8.422;2022-08-19T05:04:05;20.90;1.00
5459;DHT22;2752;49.992;8.422;2022-08-19T05:06:34;20.50;1.00
5459;DHT22;2752;49.992;8.422;2022-08-19T05:09:02;20.80;1.00
5459;DHT22;2752;49.992;8.422;2022-08-19T05:11:32;20.60;1.00
5459;DHT22;2752;49.992;8.422;2022-08-19T05:13:59;21.00;1.00
5459;DHT22;2752;49.992;8.422;2022-08-19T05:16:26;20.90;1.00
5459;DHT22;2752;49.992;8.422;2022-08-19T05:18:55;20.80;1.00
5459;DHT22;2752;49.992;8.422;2022-08-19T05:21:41;21.00;1.00
5459;DHT22;2752;49.992;8.422;2022-08-19T05:24:26;20.90;1.00
5459;DHT22;2752;49.992;8.422;2022-08-19T05:26:55;21.00;1.00
5459;DHT22;2752;49.992;8.422;2022-08-19T05:29:25;20.90;1.00
5459;DHT22;2752;49.992;8.422;2022-08-19T05:31:53;21.10;1.00
5459;DHT22;2752;49.992;8.422;2022-08-19T05:34:23;21.30;1.00
5459;DHT22;2752;49.992;8.422;2022-08-19T05:36:52;21.20;1.00
5459;DHT22;2752;49.992;8.422;2022-08-19T05:39:21;21.00;1.00
5459;DHT22;2752;49.992;8.422;2022-08-19T05:41:51;21.40;1.00
5459;DHT22;2752;49.992;8.422;2022-08-19T05:44:19;21.50;1.00
5459;DHT22;2752;49.992;8.422;2022-08-19T05:46:47;21.50;1.00
5459;DHT22;2752;49.992;8.422;2022-08-19T05:49:15;21.50;1.00
5459;DHT22;2752;49.992;8.422;2022-08-19T05:51:43;21.70;1.00
5459;DHT22;2752;49.992;8.422;2022-08-19T05:54:10;21.80;1.00
5459;DHT22;2752;49.992;8.422;2022-08-19T05:56:39;22.00;1.00
5459;DHT22;2752;49.992;8.422;2022-08-19T05:59:06;22.10;1.00
5459;DHT22;2752;49.992;8.422;2022-08-19T06:01:36;21.90;1.00
5459;DHT22;2752;49.992;8.422;2022-08-19T06:04:03;21.80;1.00
5459;DHT22;2752;49.992;8.422;2022-08-19T06:06:30;21.80;1.00
5459;DHT22;2752;49.992;8.422;2022-08-19T06:09:00;21.80;1.00
5459;DHT22;2752;49.992;8.422;2022-08-19T06:11:33;22.00;1.00
5459;DHT22;2752;49.992;8.422;2022-08-19T06:14:03;21.60;1.00
5459;DHT22;2752;49.992;8.422;2022-08-19T06:16:30;22.10;1.00
5459;DHT22;2752;49.992;8.422;2022-08-19T06:19:02;22.00;1.00
5459;DHT22;2752;49.992;8.422;2022-08-19T06:21:32;22.00;1.00
5459;DHT22;2752;49.992;8.422;2022-08-19T06:24:05;22.30;1.00
5459;DHT22;2752;49.992;8.422;2022-08-19T06:26:33;22.40;1.00
5459;DHT22;2752;49.992;8.422;2022-08-19T06:29:01;22.40;1.00
5459;DHT22;2752;49.992;8.422;2022-08-19T06:31:28;22.40;1.00
5459;DHT22;2752;49.992;8.422;2022-08-19T06:33:56;22.40;1.00
5459;DHT22;2752;49.992;8.422;2022-08-19T06:36:24;22.30;1.00
5459;DHT22;2752;49.992;8.422;2022-08-19T06:38:56;22.50;1.00
5459;DHT22;2752;49.992;8.422;2022-08-19T06:41:25;22.70;1.00
5459;DHT22;2752;49.992;8.422;2022-08-19T06:43:53;22.80;1.00
5459;DHT22;2752;49.992;8.422;2022-08-19T06:46:20;22.90;1.00
5459;DHT22;2752;49.992;8.422;2022-08-19T06:48:47;22.80;1.00
5459;DHT22;2752;49.992;8.422;2022-08-19T06:51:15;22.90;1.00
5459;DHT22;2752;49.992;8.422;2022-08-19T06:53:44;23.10;1.00
5459;DHT22;2752;49.992;8.422;2022-08-19T06:56:13;23.30;1.00
5459;DHT22;2752;49.992;8.422;2022-08-19T06:58:41;23.20;1.00
5459;DHT22;2752;49.992;8.422;2022-08-19T07:01:08;23.20;1.00
5459;DHT22;2752;49.992;8.422;2022-08-19T07:03:37;23.10;1.00
5459;DHT22;2752;49.992;8.422;2022-08-19T07:06:05;22.90;1.00
5459;DHT22;2752;49.992;8.422;2022-08-19T07:08:33;23.10;1.00
5459;DHT22;2752;49.992;8.422;2022-08-19T07:11:02;23.20;1.00
5459;DHT22;2752;49.992;8.422;2022-08-19T07:13:28;23.00;1.00
5459;DHT22;2752;49.992;8.422;2022-08-19T07:16:04;23.10;1.00
5459;DHT22;2752;49.992;8.422;2022-08-19T07:18:31;23.30;1.00
5459;DHT22;2752;49.992;8.422;2022-08-19T07:21:03;23.20;1.00
5459;DHT22;2752;49.992;8.422;2022-08-19T07:23:30;23.50;1.00
5459;DHT22;2752;49.992;8.422;2022-08-19T07:25:56;23.50;1.00
5459;DHT22;2752;49.992;8.422;2022-08-19T07:28:23;23.40;1.00
5459;DHT22;2752;49.992;8.422;2022-08-19T07:30:50;23.50;1.00
5459;DHT22;2752;49.992;8.422;2022-08-19T07:33:19;23.40;1.00
5459;DHT22;2752;49.992;8.422;2022-08-19T07:35:46;23.40;1.00
5459;DHT22;2752;49.992;8.422;2022-08-19T07:38:12;23.40;1.00
5459;DHT22;2752;49.992;8.422;2022-08-19T07:40:40;23.70;1.00
5459;DHT22;2752;49.992;8.422;2022-08-19T07:43:08;23.60;1.00
5459;DHT22;2752;49.992;8.422;2022-08-19T07:45:35;23.50;1.00
5459;DHT22;2752;49.992;8.422;2022-08-19T07:48:02;23.90;1.00
5459;DHT22;2752;49.992;8.422;2022-08-19T07:50:30;23.70;1.00
5459;DHT22;2752;49.992;8.422;2022-08-19T07:52:57;24.00;1.00
5459;DHT22;2752;49.992;8.422;2022-08-19T07:55:25;24.10;1.00
5459;DHT22;2752;49.992;8.422;2022-08-19T07:57:52;24.10;1.00
5459;DHT22;2752;49.992;8.422;2022-08-19T08:00:19;24.40;1.00
5459;DHT22;2752;49.992;8.422;2022-08-19T08:02:46;24.40;1.00
5459;DHT22;2752;49.992;8.422;2022-08-19T08:05:12;24.30;1.00
5459;DHT22;2752;49.992;8.422;2022-08-19T08:07:58;24.40;1.00
5459;DHT22;2752;49.992;8.422;2022-08-19T08:10:42;24.40;1.00
5459;DHT22;2752;49.992;8.422;2022-08-19T08:13:09;24.40;1.00
5459;DHT22;2752;49.992;8.422;2022-08-19T08:15:36;24.30;1.00
5459;DHT22;2752;49.992;8.422;2022-08-19T08:18:03;24.40;1.00
5459;DHT22;2752;49.992;8.422;2022-08-19T08:20:31;24.50;1.00
5459;DHT22;2752;49.992;8.422;2022-08-19T08:22:59;24.30;1.00
5459;DHT22;2752;49.992;8.422;2022-08-19T08:25:44;24.40;1.00
5459;DHT22;2752;49.992;8.422;2022-08-19T08:28:10;24.40;1.00
5459;DHT22;2752;49.992;8.422;2022-08-19T08:30:37;24.40;1.00
5459;DHT22;2752;49.992;8.422;2022-08-19T08:33:07;24.50;1.00
5459;DHT22;2752;49.992;8.422;2022-08-19T08:35:34;24.60;1.00
5459;DHT22;2752;49.992;8.422;2022-08-19T08:38:03;24.90;1.00
5459;DHT22;2752;49.992;8.422;2022-08-19T08:40:38;25.10;1.00
5459;DHT22;2752;49.992;8.422;2022-08-19T08:43:09;25.20;1.00
5459;DHT22;2752;49.992;8.422;2022-08-19T08:45:42;25.30;1.00
5459;DHT22;2752;49.992;8.422;2022-08-19T08:48:22;25.50;1.00
5459;DHT22;2752;49.992;8.422;2022-08-19T08:50:53;25.80;1.00
5459;DHT22;2752;49.992;8.422;2022-08-19T08:53:22;25.70;1.00
5459;DHT22;2752;49.992;8.422;2022-08-19T08:55:50;25.90;1.00
5459;DHT22;2752;49.992;8.422;2022-08-19T08:58:24;25.80;1.00
5459;DHT22;2752;49.992;8.422;2022-08-19T09:00:52;25.90;1.00
5459;DHT22;2752;49.992;8.422;2022-08-19T09:03:20;25.70;1.00
5459;DHT22;2752;49.992;8.422;2022-08-19T09:05:56;25.80;1.00
5459;DHT22;2752;49.992;8.422;2022-08-19T09:08:35;25.80;1.00
5459;DHT22;2752;49.992;8.422;2022-08-19T09:11:07;25.80;1.00
5459;DHT22;2752;49.992;8.422;2022-08-19T09:13:42;25.80;1.00
5459;DHT22;2752;49.992;8.422;2022-08-19T09:16:15;25.80;1.00
5459;DHT22;2752;49.992;8.422;2022-08-19T09:18:45;25.90;1.00
5459;DHT22;2752;49.992;8.422;2022-08-19T09:21:13;25.80;1.00
5459;DHT22;2752;49.992;8.422;2022-08-19T09:23:41;25.80;1.00
5459;DHT22;2752;49.992;8.422;2022-08-19T09:26:09;25.80;1.00
5459;DHT22;2752;49.992;8.422;2022-08-19T09:28:38;25.90;1.00
5459;DHT22;2752;49.992;8.422;2022-08-19T09:31:09;25.80;1.00
5459;DHT22;2752;49.992;8.422;2022-08-19T09:33:35;25.60;1.00
5459;DHT22;2752;49.992;8.422;2022-08-19T09:36:05;25.60;1.00
5459;DHT22;2752;49.992;8.422;2022-08-19T09:38:32;25.80;1.00
5459;DHT22;2752;49.992;8.422;2022-08-19T09:41:04;25.80;1.00
5459;DHT22;2752;49.992;8.422;2022-08-19T09:43:31;25.90;1.00
5459;DHT22;2752;49.992;8.422;2022-08-19T09:45:58;25.80;1.00
5459;DHT22;2752;49.992;8.422;2022-08-19T09:48:25;26.00;1.00
5459;DHT22;2752;49.992;8.422;2022-08-19T09:50:52;26.20;1.00
5459;DHT22;2752;49.992;8.422;2022-08-19T09:53:19;25.90;1.00
5459;DHT22;2752;49.992;8.422;2022-08-19T09:55:48;26.00;1.00
5459;DHT22;2752;49.992;8.422;2022-08-19T09:58:21;26.10;1.00
5459;DHT22;2752;49.992;8.422;2022-08-19T10:00:53;26.30;1.00
5459;DHT22;2752;49.992;8.422;2022-08-19T10:03:22;26.30;1.00
5459;DHT22;2752;49.992;8.422;2022-08-19T10:05:50;26.30;1.00
5459;DHT22;2752;49.992;8.422;2022-08-19T10:08:20;26.20;1.00
5459;DHT22;2752;49.992;8.422;2022-08-19T10:10:52;27.60;1.00
5459;DHT22;2752;49.992;8.422;2022-08-19T10:13:24;26.80;1.00
5459;DHT22;2752;49.992;8.422;2022-08-19T10:15:53;26.70;1.00
5459;DHT22;2752;49.992;8.422;2022-08-19T10:18:22;26.70;1.00
5459;DHT22;2752;49.992;8.422;2022-08-19T10:20:51;26.60;1.00
5459;DHT22;2752;49.992;8.422;2022-08-19T10:23:22;26.70;1.00
5459;DHT22;2752;49.992;8.422;2022-08-19T10:25:51;26.80;1.00
5459;DHT22;2752;49.992;8.422;2022-08-19T10:28:20;26.80;1.00
5459;DHT22;2752;49.992;8.422;2022-08-19T10:30:51;26.90;1.00
5459;DHT22;2752;49.992;8.422;2022-08-19T10:33:19;26.90;1.00
5459;DHT22;2752;49.992;8.422;2022-08-19T10:35:49;26.90;1.00
5459;DHT22;2752;49.992;8.422;2022-08-19T10:38:25;27.00;1.00
5459;DHT22;2752;49.992;8.422;2022-08-19T10:40:55;27.10;1.00
5459;DHT22;2752;49.992;8.422;2022-08-19T10:43:27;27.00;1.00
5459;DHT22;2752;49.992;8.422;2022-08-19T10:45:54;27.00;1.00
5459;DHT22;2752;49.992;8.422;2022-08-19T10:48:26;27.10;1.00
5459;DHT22;2752;49.992;8.422;2022-08-19T10:50:53;27.40;1.00
5459;DHT22;2752;49.992;8.422;2022-08-19T10:53:40;27.50;1.00
5459;DHT22;2752;49.992;8.422;2022-08-19T10:56:14;27.50;1.00
5459;DHT22;2752;49.992;8.422;2022-08-19T10:59:01;27.60;1.00
5459;DHT22;2752;49.992;8.422;2022-08-19T11:01:30;27.70;1.00
5459;DHT22;2752;49.992;8.422;2022-08-19T11:03:59;27.50;1.00
5459;DHT22;2752;49.992;8.422;2022-08-19T11:06:31;27.40;1.00
5459;DHT22;2752;49.992;8.422;2022-08-19T11:09:02;27.50;1.00
5459;DHT22;2752;49.992;8.422;2022-08-19T11:11:30;27.80;1.00
5459;DHT22;2752;49.992;8.422;2022-08-19T11:14:08;27.90;1.00
5459;DHT22;2752;49.992;8.422;2022-08-19T11:16:35;27.90;1.00
5459;DHT22;2752;49.992;8.422;2022-08-19T11:19:04;27.90;1.00
5459;DHT22;2752;49.992;8.422;2022-08-19T11:21:34;27.80;1.00
5459;DHT22;2752;49.992;8.422;2022-08-19T11:24:04;27.80;1.00
5459;DHT22;2752;49.992;8.422;2022-08-19T11:26:33;27.90;1.00
5459;DHT22;2752;49.992;8.422;2022-08-19T11:29:00;27.70;1.00
5459;DHT22;2752;49.992;8.422;2022-08-19T11:31:31;27.50;1.00
5459;DHT22;2752;49.992;8.422;2022-08-19T11:33:59;28.20;1.00
5459;DHT22;2752;49.992;8.422;2022-08-19T11:36:29;27.90;1.00
5459;DHT22;2752;49.992;8.422;2022-08-19T11:38:56;28.00;1.00
5459;DHT22;2752;49.992;8.422;2022-08-19T11:41:23;27.80;1.00
5459;DHT22;2752;49.992;8.422;2022-08-19T11:43:50;28.00;1.00
5459;DHT22;2752;49.992;8.422;2022-08-19T11:46:19;28.20;1.00
5459;DHT22;2752;49.992;8.422;2022-08-19T11:48:48;28.40;1.00
5459;DHT22;2752;49.992;8.422;2022-08-19T11:51:19;28.30;1.00
5459;DHT22;2752;49.992;8.422;2022-08-19T11:53:47;28.40;1.00
5459;DHT22;2752;49.992;8.422;2022-08-19T11:56:13;28.60;1.00
5459;DHT22;2752;49.992;8.422;2022-08-19T11:58:40;28.50;1.00
5459;DHT22;2752;49.992;8.422;2022-08-19T12:01:09;28.80;1.00
5459;DHT22;2752;49.992;8.422;2022-08-19T12:03:36;29.00;1.00
5459;DHT22;2752;49.992;8.422;2022-08-19T12:06:05;28.90;1.00
5459;DHT22;2752;49.992;8.422;2022-08-19T12:08:32;29.10;1.00
5459;DHT22;2752;49.992;8.422;2022-08-19T12:10:59;28.90;1.00
5459;DHT22;2752;49.992;8.422;2022-08-19T12:13:27;28.90;1.00
5459;DHT22;2752;49.992;8.422;2022-08-19T12:15:54;28.90;1.00
5459;DHT22;2752;49.992;8.422;2022-08-19T12:18:20;29.00;1.00
5459;DHT22;2752;49.992;8.422;2022-08-19T12:20:47;29.20;1.00
5459;DHT22;2752;49.992;8.422;2022-08-19T12:23:15;29.40;1.00
5459;DHT22;2752;49.992;8.422;2022-08-19T12:25:45;29.60;1.00
5459;DHT22;2752;49.992;8.422;2022-08-19T12:28:15;29.40;1.00
5459;DHT22;2752;49.992;8.422;2022-08-19T12:30:42;29.20;1.00
5459;DHT22;2752;49.992;8.422;2022-08-19T12:33:09;29.10;1.00
5459;DHT22;2752;49.992;8.422;2022-08-19T12:35:39;29.60;1.00
5459;DHT22;2752;49.992;8.422;2022-08-19T12:38:06;29.60;1.00
5459;DHT22;2752;49.992;8.422;2022-08-19T12:40:34;29.70;1.00
5459;DHT22;2752;49.992;8.422;2022-08-19T12:43:00;29.70;1.00
5459;DHT22;2752;49.992;8.422;2022-08-19T12:45:27;29.70;1.00
5459;DHT22;2752;49.992;8.422;2022-08-19T12:47:54;30.00;1.00
5459;DHT22;2752;49.992;8.422;2022-08-19T12:50:21;29.70;1.00
5459;DHT22;2752;49.992;8.422;2022-08-19T12:52:48;29.40;1.00
5459;DHT22;2752;49.992;8.422;2022-08-19T12:55:15;29.50;1.00
5459;DHT22;2752;49.992;8.422;2022-08-19T12:57:45;29.80;1.00
5459;DHT22;2752;49.992;8.422;2022-08-19T13:00:16;29.80;1.00
5459;DHT22;2752;49.992;8.422;2022-08-19T13:02:46;29.90;1.00
5459;DHT22;2752;49.992;8.422;2022-08-19T13:05:19;29.90;1.00
5459;DHT22;2752;49.992;8.422;2022-08-19T13:07:47;29.90;1.00
5459;DHT22;2752;49.992;8.422;2022-08-19T13:10:17;30.00;1.00
5459;DHT22;2752;49.992;8.422;2022-08-19T13:12:47;29.90;1.00
5459;DHT22;2752;49.992;8.422;2022-08-19T13:15:15;30.00;1.00
5459;DHT22;2752;49.992;8.422;2022-08-19T13:17:46;29.60;1.00
5459;DHT22;2752;49.992;8.422;2022-08-19T13:20:14;29.30;1.00
5459;DHT22;2752;49.992;8.422;2022-08-19T13:22:41;29.30;1.00
5459;DHT22;2752;49.992;8.422;2022-08-19T13:25:10;29.50;1.00
5459;DHT22;2752;49.992;8.422;2022-08-19T13:27:38;29.70;1.00
5459;DHT22;2752;49.992;8.422;2022-08-19T13:32:55;29.70;1.00
5459;DHT22;2752;49.992;8.422;2022-08-19T13:35:37;29.50;1.00
5459;DHT22;2752;49.992;8.422;2022-08-19T13:38:04;29.20;1.00
5459;DHT22;2752;49.992;8.422;2022-08-19T13:40:32;29.10;1.00
5459;DHT22;2752;49.992;8.422;2022-08-19T13:43:00;29.00;1.00
5459;DHT22;2752;49.992;8.422;2022-08-19T13:45:29;28.90;1.00
5459;DHT22;2752;49.992;8.422;2022-08-19T13:47:58;29.00;1.00
5459;DHT22;2752;49.992;8.422;2022-08-19T13:50:27;29.30;1.00
5459;DHT22;2752;49.992;8.422;2022-08-19T13:52:55;29.40;1.00
5459;DHT22;2752;49.992;8.422;2022-08-19T13:55:23;29.50;1.00
5459;DHT22;2752;49.992;8.422;2022-08-19T13:57:50;29.50;1.00
5459;DHT22;2752;49.992;8.422;2022-08-19T14:00:19;29.50;1.00
5459;DHT22;2752;49.992;8.422;2022-08-19T14:02:51;29.60;1.00
5459;DHT22;2752;49.992;8.422;2022-08-19T14:05:18;29.70;1.00
5459;DHT22;2752;49.992;8.422;2022-08-19T14:07:45;29.70;1.00
5459;DHT22;2752;49.992;8.422;2022-08-19T14:10:13;29.80;1.00
5459;DHT22;2752;49.992;8.422;2022-08-19T14:12:40;29.80;1.00
5459;DHT22;2752;49.992;8.422;2022-08-19T14:15:08;30.00;1.00
5459;DHT22;2752;49.992;8.422;2022-08-19T14:17:37;29.70;1.00
5459;DHT22;2752;49.992;8.422;2022-08-19T14:22:36;29.90;1.00
5459;DHT22;2752;49.992;8.422;2022-08-19T14:25:05;29.60;1.00
5459;DHT22;2752;49.992;8.422;2022-08-19T14:27:32;29.90;1.00
5459;DHT22;2752;49.992;8.422;2022-08-19T14:29:59;29.90;1.00
5459;DHT22;2752;49.992;8.422;2022-08-19T14:32:25;29.90;1.00
5459;DHT22;2752;49.992;8.422;2022-08-19T14:34:53;30.20;1.00
5459;DHT22;2752;49.992;8.422;2022-08-19T14:37:21;30.20;1.00
5459;DHT22;2752;49.992;8.422;2022-08-19T14:39:48;30.50;1.00
5459;DHT22;2752;49.992;8.422;2022-08-19T14:42:14;29.80;1.00
5459;DHT22;2752;49.992;8.422;2022-08-19T14:44:41;29.80;1.00
5459;DHT22;2752;49.992;8.422;2022-08-19T14:47:09;29.90;1.00
5459;DHT22;2752;49.992;8.422;2022-08-19T14:49:36;29.70;1.00
5459;DHT22;2752;49.992;8.422;2022-08-19T14:52:04;29.50;1.00
5459;DHT22;2752;49.992;8.422;2022-08-19T14:54:33;29.70;1.00
5459;DHT22;2752;49.992;8.422;2022-08-19T14:56:59;29.70;1.00
5459;DHT22;2752;49.992;8.422;2022-08-19T14:59:26;29.80;1.00
5459;DHT22;2752;49.992;8.422;2022-08-19T15:01:53;29.70;1.00
5459;DHT22;2752;49.992;8.422;2022-08-19T15:04:19;29.70;1.00
5459;DHT22;2752;49.992;8.422;2022-08-19T15:06:46;29.80;1.00
5459;DHT22;2752;49.992;8.422;2022-08-19T15:09:13;29.50;1.00
5459;DHT22;2752;49.992;8.422;2022-08-19T15:11:42;29.60;1.00
5459;DHT22;2752;49.992;8.422;2022-08-19T15:14:09;29.50;1.00
5459;DHT22;2752;49.992;8.422;2022-08-19T15:16:36;29.70;1.00
5459;DHT22;2752;49.992;8.422;2022-08-19T15:19:04;29.90;1.00
5459;DHT22;2752;49.992;8.422;2022-08-19T15:21:31;29.70;1.00
5459;DHT22;2752;49.992;8.422;2022-08-19T15:23:58;29.50;1.00
5459;DHT22;2752;49.992;8.422;2022-08-19T15:26:26;29.50;1.00
5459;DHT22;2752;49.992;8.422;2022-08-19T15:28:54;29.60;1.00
5459;DHT22;2752;49.992;8.422;2022-08-19T15:31:23;30.00;1.00
5459;DHT22;2752;49.992;8.422;2022-08-19T15:33:49;30.90;1.00
5459;DHT22;2752;49.992;8.422;2022-08-19T15:36:16;30.10;1.00
5459;DHT22;2752;49.992;8.422;2022-08-19T15:38:43;30.20;1.00
5459;DHT22;2752;49.992;8.422;2022-08-19T15:41:16;30.50;1.00
5459;DHT22;2752;49.992;8.422;2022-08-19T15:43:51;30.90;1.00
5459;DHT22;2752;49.992;8.422;2022-08-19T15:46:21;30.40;1.00
5459;DHT22;2752;49.992;8.422;2022-08-19T15:48:48;30.50;1.00
5459;DHT22;2752;49.992;8.422;2022-08-19T15:51:15;30.40;1.00
5459;DHT22;2752;49.992;8.422;2022-08-19T15:53:42;30.40;1.00
5459;DHT22;2752;49.992;8.422;2022-08-19T15:56:09;30.60;1.00
5459;DHT22;2752;49.992;8.422;2022-08-19T15:58:36;30.50;1.00
5459;DHT22;2752;49.992;8.422;2022-08-19T16:01:22;30.70;1.00
5459;DHT22;2752;49.992;8.422;2022-08-19T16:04:06;30.90;1.00
5459;DHT22;2752;49.992;8.422;2022-08-19T16:06:53;30.60;1.00
5459;DHT22;2752;49.992;8.422;2022-08-19T16:09:21;30.60;1.00
5459;DHT22;2752;49.992;8.422;2022-08-19T16:11:48;30.70;1.00
5459;DHT22;2752;49.992;8.422;2022-08-19T16:14:16;30.80;1.00
5459;DHT22;2752;49.992;8.422;2022-08-19T16:16:45;30.90;1.00
5459;DHT22;2752;49.992;8.422;2022-08-19T16:19:13;31.20;1.00
5459;DHT22;2752;49.992;8.422;2022-08-19T16:21:41;30.80;1.00
5459;DHT22;2752;49.992;8.422;2022-08-19T16:24:10;30.90;1.00
5459;DHT22;2752;49.992;8.422;2022-08-19T16:26:38;30.60;1.00
5459;DHT22;2752;49.992;8.422;2022-08-19T16:29:06;30.50;1.00
5459;DHT22;2752;49.992;8.422;2022-08-19T16:31:35;31.40;1.00
5459;DHT22;2752;49.992;8.422;2022-08-19T16:34:03;30.40;1.00